Time;durP1;ratioP1;P1;durP2;ratioP2;P2;SDS_P1;SDS_P2;PMS_P1;PMS_P2;Temp;Humidity;BMP_temperature;BMP_pressure;BME280_temperature;BME280_humidity;BME280_pressure;Samples;Min_cycle;Max_cycle;Signal;HPM_P1;HPM_P2
2022/10/02 00:02:15;;;;;;;0.75;0.32;;;13.60;87.00;;;;;;4877639;29;20078;-77
2022/10/02 00:05:00;;;;;;;0.70;0.38;;;13.50;87.00;;;;;;4898499;29;20112;-77
2022/10/02 00:07:47;;;;;;;1.60;0.40;;;13.50;87.10;;;;;;4873024;29;20042;-78
2022/10/02 00:10:22;;;;;;;1.77;0.40;;;13.50;87.20;;;;;;4896124;29;20070;-77
2022/10/02 00:12:54;;;;;;;0.57;0.40;;;13.50;87.30;;;;;;4896867;29;20128;-78
2022/10/02 00:15:26;;;;;;;1.00;0.30;;;13.50;87.40;;;;;;4874764;29;20068;-78
2022/10/02 00:17:56;;;;;;;0.50;0.38;;;13.40;87.40;;;;;;4875043;29;20041;-78
2022/10/02 00:20:32;;;;;;;1.45;0.30;;;13.40;87.50;;;;;;4888929;29;20097;-78
2022/10/02 00:23:08;;;;;;;0.82;0.40;;;13.40;87.70;;;;;;4875118;29;20045;-78
2022/10/02 00:25:45;;;;;;;0.90;0.40;;;13.30;87.70;;;;;;4892814;29;20072;-78
2022/10/02 00:28:27;;;;;;;1.00;0.30;;;13.30;87.80;;;;;;4883616;29;20105;-78
2022/10/02 00:31:33;;;;;;;1.00;0.20;;;13.20;87.80;;;;;;4894176;29;20468;-78
2022/10/02 00:34:20;;;;;;;0.30;0.22;;;13.30;88.00;;;;;;4844670;29;20096;-79
2022/10/02 00:37:02;;;;;;;1.35;0.30;;;13.20;88.00;;;;;;4892592;29;20037;-78
2022/10/02 00:39:52;;;;;;;0.60;0.22;;;13.20;88.10;;;;;;4891232;29;20077;-78
2022/10/02 00:42:37;;;;;;;1.00;0.22;;;13.10;88.10;;;;;;4862745;29;20069;-78
2022/10/02 00:45:30;;;;;;;1.58;0.20;;;13.10;88.20;;;;;;4896358;29;20045;-78
2022/10/02 00:48:13;;;;;;;0.45;0.15;;;13.00;88.30;;;;;;4878632;29;20073;-78
2022/10/02 00:50:53;;;;;;;0.30;0.22;;;13.00;88.40;;;;;;4897345;29;20041;-79
2022/10/02 00:53:41;;;;;;;0.65;0.30;;;13.00;88.50;;;;;;4895986;29;20073;-79
2022/10/02 00:56:23;;;;;;;0.98;0.22;;;12.90;88.50;;;;;;4880036;29;20045;-78
2022/10/02 00:59:11;;;;;;;1.20;0.35;;;12.90;88.60;;;;;;4895357;29;20049;-78
2022/10/02 01:01:52;;;;;;;1.38;0.32;;;12.90;88.60;;;;;;4894533;29;20049;-79
2022/10/02 01:04:27;;;;;;;0.20;0.10;;;12.90;88.70;;;;;;4867798;29;20021;-79
2022/10/02 01:06:54;;;;;;;0.30;0.20;;;12.90;88.60;;;;;;4897742;29;20067;-78
2022/10/02 01:09:21;;;;;;;0.38;0.30;;;13.00;88.70;;;;;;4866406;29;20041;-78
2022/10/02 01:11:47;;;;;;;0.38;0.25;;;12.90;88.70;;;;;;4900180;29;20052;-78
2022/10/02 01:14:14;;;;;;;0.40;0.40;;;12.90;88.70;;;;;;4895208;29;20037;-79
2022/10/02 01:16:41;;;;;;;0.73;0.40;;;13.00;88.70;;;;;;4897503;29;20041;-78
2022/10/02 01:19:27;;;;;;;0.30;0.30;;;12.90;88.70;;;;;;4893832;29;20555;-78
2022/10/02 01:22:02;;;;;;;0.95;0.40;;;12.90;88.70;;;;;;4861960;29;20057;-78
2022/10/02 01:24:36;;;;;;;1.00;0.40;;;12.90;88.70;;;;;;4871941;29;20042;-79
2022/10/02 01:27:03;;;;;;;1.95;0.57;;;12.90;88.60;;;;;;4885626;29;20051;-79
2022/10/02 01:29:28;;;;;;;0.90;0.40;;;12.90;88.60;;;;;;4874488;29;20034;-79
2022/10/02 01:31:55;;;;;;;0.50;0.40;;;12.90;89.30;;;;;;4873682;29;20068;-78
2022/10/02 01:34:22;;;;;;;1.45;0.55;;;12.90;88.70;;;;;;4890091;29;20045;-79
2022/10/02 01:36:48;;;;;;;2.58;0.63;;;12.90;88.70;;;;;;4894609;29;20017;-78
2022/10/02 01:39:14;;;;;;;1.48;0.75;;;12.90;88.80;;;;;;4895406;29;20042;-78
2022/10/02 01:41:43;;;;;;;0.93;0.70;;;12.90;88.80;;;;;;4888369;29;20077;-79
2022/10/02 01:44:10;;;;;;;2.15;0.80;;;13.10;88.90;;;;;;4885802;29;20093;-78
2022/10/02 01:46:51;;;;;;;1.35;0.70;;;13.00;88.90;;;;;;4889994;29;20052;-79
2022/10/02 01:49:39;;;;;;;1.80;0.85;;;13.00;88.90;;;;;;4876403;29;20044;-78
2022/10/02 01:52:19;;;;;;;1.23;0.77;;;13.00;88.90;;;;;;4889438;29;20052;-79
2022/10/02 01:55:08;;;;;;;1.40;0.75;;;13.00;88.80;;;;;;4877566;29;20415;-78
2022/10/02 01:57:59;;;;;;;1.30;0.70;;;13.00;88.80;;;;;;4892767;29;20045;-79
2022/10/02 02:00:28;;;;;;;1.10;0.52;;;13.10;88.90;;;;;;4874749;29;20053;-79
2022/10/02 02:03:21;;;;;;;1.73;0.80;;;13.00;88.80;;;;;;4891651;29;20037;-78
2022/10/02 02:06:05;;;;;;;0.95;0.70;;;13.10;89.00;;;;;;4877205;29;20493;-79
2022/10/02 02:08:50;;;;;;;1.38;0.88;;;13.00;88.90;;;;;;4883361;29;20037;-79
2022/10/02 02:11:19;;;;;;;2.78;1.00;;;13.10;88.90;;;;;;4882158;29;20089;-79
2022/10/02 02:14:00;;;;;;;0.70;0.57;;;13.10;89.00;;;;;;4881872;29;20056;-79
2022/10/02 02:16:41;;;;;;;0.65;0.50;;;13.10;89.00;;;;;;4882001;29;20052;-79
2022/10/02 02:19:31;;;;;;;0.65;0.65;;;13.10;89.10;;;;;;4881209;29;20085;-79
2022/10/02 02:22:04;;;;;;;1.33;0.80;;;13.00;89.10;;;;;;4881707;29;20053;-79
2022/10/02 02:24:56;;;;;;;0.80;0.70;;;13.10;89.20;;;;;;4863761;29;20049;-79
2022/10/02 02:27:26;;;;;;;0.95;0.60;;;13.10;89.30;;;;;;4880167;29;20104;-79
2022/10/02 02:29:59;;;;;;;1.85;0.77;;;13.10;89.30;;;;;;4880823;29;20049;-79
2022/10/02 02:32:31;;;;;;;1.75;0.88;;;13.10;89.30;;;;;;4881739;29;20081;-79
2022/10/02 02:35:04;;;;;;;2.38;1.00;;;13.10;89.50;;;;;;4887161;29;20037;-79
2022/10/02 02:37:33;;;;;;;2.58;1.05;;;13.10;89.50;;;;;;4866873;29;20057;-79
2022/10/02 02:40:11;;;;;;;1.63;0.88;;;13.10;89.50;;;;;;4864562;29;20038;-79
2022/10/02 02:42:42;;;;;;;1.02;0.80;;;13.10;89.60;;;;;;4882845;29;20045;-79
2022/10/02 02:45:11;;;;;;;;;;;13.00;89.40;;;;;;4884468;29;20128;-79
2022/10/02 02:47:45;;;;;;;0.60;0.60;;;13.10;89.50;;;;;;4884008;29;20290;-78
2022/10/02 02:50:27;;;;;;;1.17;0.63;;;13.00;89.50;;;;;;4867077;29;20049;-79
2022/10/02 02:53:08;;;;;;;2.00;0.70;;;13.10;89.60;;;;;;4883968;29;20044;-78
2022/10/02 02:55:38;;;;;;;1.08;0.70;;;13.10;89.60;;;;;;4882854;29;20431;-78
2022/10/02 02:58:28;;;;;;;0.88;0.50;;;13.00;89.60;;;;;;4866706;29;20049;-79
2022/10/02 03:00:54;;;;;;;1.20;0.45;;;13.00;89.70;;;;;;4854920;29;20144;-79
2022/10/02 03:03:20;;;;;;;1.05;0.50;;;13.00;89.70;;;;;;4882789;29;20538;-79
2022/10/02 03:05:52;;;;;;;0.80;0.60;;;13.00;89.80;;;;;;4886886;29;20029;-78
2022/10/02 03:08:30;;;;;;;0.55;0.40;;;12.90;89.90;;;;;;4869493;29;20065;-79
2022/10/02 03:11:18;;;;;;;0.75;0.40;;;12.90;90.20;;;;;;4870185;29;20109;-78
2022/10/02 03:14:06;;;;;;;1.33;0.47;;;12.90;90.00;;;;;;4889938;29;20041;-79
2022/10/02 03:16:41;;;;;;;1.48;0.40;;;13.00;90.10;;;;;;4857327;29;20512;-79
2022/10/02 03:19:39;;;;;;;0.90;0.40;;;13.00;90.00;;;;;;4895660;29;20076;-79
2022/10/02 03:22:26;;;;;;;0.60;0.40;;;12.90;90.00;;;;;;4887531;29;20045;-78
2022/10/02 03:25:23;;;;;;;0.60;0.40;;;13.00;90.00;;;;;;4855293;29;20496;-79
2022/10/02 03:28:04;;;;;;;0.38;0.30;;;13.00;90.00;;;;;;4868569;29;20033;-79
2022/10/02 03:30:31;;;;;;;1.00;0.45;;;12.90;90.00;;;;;;4886266;29;20048;-79
2022/10/02 03:32:59;;;;;;;0.47;0.28;;;12.90;90.00;;;;;;4888715;29;20052;-79
2022/10/02 03:35:27;;;;;;;0.55;0.35;;;12.80;90.00;;;;;;4888099;29;20096;-79
2022/10/02 03:37:57;;;;;;;0.90;0.30;;;12.90;90.10;;;;;;4887423;29;20094;-79
2022/10/02 03:40:25;;;;;;;1.17;0.50;;;12.80;90.10;;;;;;4887327;29;20160;-78
2022/10/02 03:42:52;;;;;;;0.60;0.40;;;12.80;90.20;;;;;;4886497;29;20036;-78
2022/10/02 03:45:19;;;;;;;1.30;0.40;;;12.80;90.20;;;;;;4887315;29;20061;-77
2022/10/02 03:47:44;;;;;;;0.30;0.30;;;12.80;90.20;;;;;;4886054;29;20037;-77
2022/10/02 03:50:12;;;;;;;0.55;0.30;;;12.70;90.20;;;;;;4885214;29;20033;-77
2022/10/02 03:52:38;;;;;;;1.13;0.40;;;12.70;90.20;;;;;;4868506;29;20041;-78
2022/10/02 03:55:32;;;;;;;1.25;0.50;;;12.80;90.20;;;;;;4868128;29;20037;-78
2022/10/02 03:58:01;;;;;;;1.33;0.40;;;12.80;90.20;;;;;;4883929;29;20523;-77
2022/10/02 04:00:37;;;;;;;0.93;0.40;;;12.70;90.20;;;;;;4885515;29;20072;-77
2022/10/02 04:03:13;;;;;;;0.95;0.52;;;12.70;90.20;;;;;;4892543;29;20037;-78
2022/10/02 04:05:57;;;;;;;0.85;0.50;;;12.70;90.20;;;;;;4891587;29;20098;-77
2022/10/02 04:08:40;;;;;;;0.40;0.30;;;12.70;90.30;;;;;;4858602;29;20477;-77
2022/10/02 04:11:13;;;;;;;0.85;0.30;;;12.70;90.30;;;;;;4887382;29;20048;-77
2022/10/02 04:13:46;;;;;;;1.13;0.40;;;12.70;90.30;;;;;;4886661;29;20049;-77
2022/10/02 04:16:33;;;;;;;0.70;0.38;;;12.70;90.30;;;;;;4869978;29;20060;-77
2022/10/02 04:19:10;;;;;;;1.05;0.32;;;12.70;90.30;;;;;;4883533;29;20059;-77
2022/10/02 04:21:53;;;;;;;0.68;0.40;;;12.80;90.30;;;;;;4882962;29;20560;-77
2022/10/02 04:24:32;;;;;;;1.20;0.50;;;12.70;90.30;;;;;;4881379;29;20037;-77
2022/10/02 04:27:21;;;;;;;0.60;0.50;;;12.70;90.30;;;;;;4865778;29;20075;-77
2022/10/02 04:29:53;;;;;;;1.95;0.50;;;12.70;90.30;;;;;;4882324;29;20037;-78
2022/10/02 04:32:25;;;;;;;1.38;0.52;;;12.70;90.30;;;;;;4881154;29;20144;-77
2022/10/02 04:34:51;;;;;;;2.28;0.50;;;12.70;90.30;;;;;;4880912;29;20045;-77
2022/10/02 04:37:36;;;;;;;1.05;0.32;;;12.70;90.30;;;;;;4880867;29;20041;-78
2022/10/02 04:40:25;;;;;;;0.63;0.32;;;12.60;90.30;;;;;;4849892;29;20033;-77
2022/10/02 04:43:05;;;;;;;1.50;0.47;;;12.70;90.40;;;;;;4880934;29;20041;-77
2022/10/02 04:46:06;;;;;;;0.95;0.50;;;12.60;90.30;;;;;;4849547;29;20040;-78
2022/10/02 04:49:01;;;;;;;1.15;0.45;;;12.60;90.40;;;;;;4882476;29;20469;-77
2022/10/02 04:51:50;;;;;;;1.13;0.40;;;12.70;90.40;;;;;;4857526;29;20033;-77
2022/10/02 04:54:46;;;;;;;0.60;0.30;;;12.60;90.40;;;;;;4881303;29;20045;-78
2022/10/02 04:57:40;;;;;;;0.57;0.30;;;12.60;90.40;;;;;;4881053;29;20084;-77
2022/10/02 05:00:22;;;;;;;0.32;0.30;;;12.40;90.40;;;;;;4881166;29;20045;-77
2022/10/02 05:03:24;;;;;;;0.85;0.25;;;12.50;90.50;;;;;;4881047;29;20048;-77
2022/10/02 05:06:07;;;;;;;1.00;0.35;;;12.50;90.60;;;;;;4864525;29;20129;-77
2022/10/02 05:08:48;;;;;;;1.02;0.35;;;12.50;90.50;;;;;;4880651;29;20040;-77
2022/10/02 05:11:35;;;;;;;0.77;0.33;;;12.50;90.60;;;;;;4881038;29;20499;-77
2022/10/02 05:14:19;;;;;;;1.45;0.50;;;12.50;90.50;;;;;;4878294;29;20045;-77
2022/10/02 05:17:00;;;;;;;0.73;0.32;;;12.70;90.50;;;;;;4850482;29;20604;-78
2022/10/02 05:19:51;;;;;;;1.23;0.35;;;12.60;90.50;;;;;;4881558;29;20096;-77
2022/10/02 05:22:42;;;;;;;2.83;0.60;;;12.60;90.50;;;;;;4881844;29;20057;-79
2022/10/02 05:25:28;;;;;;;;;;;12.60;90.50;;;;;;4880599;29;20092;-78
2022/10/02 05:28:20;;;;;;;0.30;0.30;;;12.60;90.50;;;;;;4861093;29;19908;-78
2022/10/02 05:30:53;;;;;;;0.20;0.20;;;12.50;90.40;;;;;;4860995;29;20061;-78
2022/10/02 05:33:42;;;;;;;2.13;0.43;;;12.60;90.50;;;;;;4862909;29;20053;-78
2022/10/02 05:36:27;;;;;;;1.23;0.40;;;12.60;90.50;;;;;;4879838;29;20033;-78
2022/10/02 05:39:07;;;;;;;2.10;0.32;;;12.50;90.50;;;;;;4879809;29;20183;-78
2022/10/02 05:41:49;;;;;;;0.65;0.30;;;12.50;90.50;;;;;;4878630;29;20539;-78
2022/10/02 05:44:36;;;;;;;0.68;0.30;;;12.50;90.50;;;;;;4879440;29;20033;-77
2022/10/02 05:47:25;;;;;;;0.73;0.35;;;12.50;90.50;;;;;;4877760;29;20045;-76
2022/10/02 05:49:59;;;;;;;0.47;0.40;;;12.50;90.60;;;;;;4877795;29;20029;-78
2022/10/02 05:52:34;;;;;;;1.00;0.35;;;12.50;90.60;;;;;;4879002;29;20047;-78
2022/10/02 05:55:13;;;;;;;0.32;0.20;;;12.50;90.50;;;;;;4879575;29;20125;-77
2022/10/02 05:57:44;;;;;;;0.50;0.22;;;12.50;90.60;;;;;;4848683;29;20492;-76
2022/10/02 06:00:33;;;;;;;0.22;0.20;;;12.50;90.60;;;;;;4878919;29;20037;-77
2022/10/02 06:03:24;;;;;;;0.50;0.32;;;12.50;90.60;;;;;;4879037;29;20119;-77
2022/10/02 06:05:58;;;;;;;1.10;0.32;;;12.50;90.60;;;;;;4878828;29;20560;-76
2022/10/02 06:08:32;;;;;;;0.70;0.40;;;12.60;90.60;;;;;;4878762;29;20033;-76
2022/10/02 06:11:06;;;;;;;0.50;0.30;;;12.60;90.60;;;;;;4879041;29;20025;-76
2022/10/02 06:13:42;;;;;;;0.28;0.28;;;12.70;90.60;;;;;;4877525;29;20041;-76
2022/10/02 06:16:28;;;;;;;0.47;0.20;;;12.70;90.60;;;;;;4878358;29;20507;-76
2022/10/02 06:19:04;;;;;;;0.75;0.22;;;12.70;90.60;;;;;;4878287;29;20089;-77
2022/10/02 06:21:38;;;;;;;0.43;0.38;;;12.70;90.50;;;;;;4861349;29;20056;-77
2022/10/02 06:24:11;;;;;;;0.77;0.35;;;12.80;90.50;;;;;;4861066;29;20036;-76
2022/10/02 06:26:46;;;;;;;0.10;0.10;;;12.80;90.50;;;;;;4846540;29;20122;-76
2022/10/02 06:29:30;;;;;;;0.20;0.20;;;12.80;90.50;;;;;;4878006;29;20038;-76
2022/10/02 06:32:26;;;;;;;1.02;0.30;;;12.80;90.50;;;;;;4878528;29;20037;-77
2022/10/02 06:34:52;;;;;;;0.30;0.30;;;12.80;90.50;;;;;;4875290;29;20041;-77
2022/10/02 06:37:37;;;;;;;0.43;0.20;;;12.90;90.50;;;;;;4876715;29;20040;-76
2022/10/02 06:40:33;;;;;;;1.23;0.30;;;12.90;90.50;;;;;;4877798;29;20056;-78
2022/10/02 06:43:26;;;;;;;2.17;0.50;;;12.90;90.50;;;;;;4876920;29;20037;-77
2022/10/02 06:46:05;;;;;;;0.50;0.30;;;13.00;90.50;;;;;;4877719;29;20056;-77
2022/10/02 06:48:47;;;;;;;0.65;0.40;;;13.00;90.50;;;;;;4878406;29;20037;-77
2022/10/02 06:51:31;;;;;;;1.30;0.50;;;13.00;90.50;;;;;;4878338;29;20484;-78
2022/10/02 06:54:18;;;;;;;0.28;0.28;;;13.00;90.50;;;;;;4877836;29;21118;-77
2022/10/02 06:57:10;;;;;;;1.30;0.35;;;13.10;90.50;;;;;;4860818;29;20037;-77
2022/10/02 07:00:10;;;;;;;0.30;0.28;;;13.10;90.50;;;;;;4877653;29;20037;-78
2022/10/02 07:03:02;;;;;;;1.58;0.40;;;13.10;90.50;;;;;;4876357;29;20045;-78
2022/10/02 07:05:45;;;;;;;1.50;0.38;;;13.20;90.50;;;;;;4877211;29;20045;-78
2022/10/02 07:08:39;;;;;;;0.40;0.35;;;13.20;90.50;;;;;;4877566;29;20041;-78
2022/10/02 07:11:32;;;;;;;0.20;0.20;;;13.20;90.50;;;;;;4860902;29;20049;-78
2022/10/02 07:14:19;;;;;;;0.20;0.20;;;13.30;90.50;;;;;;4874840;29;20041;-78
2022/10/02 07:17:07;;;;;;;1.75;0.40;;;13.30;90.50;;;;;;4860751;29;20048;-78
2022/10/02 07:20:01;;;;;;;1.65;0.40;;;13.40;90.50;;;;;;4860760;29;20091;-77
2022/10/02 07:22:41;;;;;;;3.28;0.57;;;13.40;90.40;;;;;;4876511;29;20084;-78
2022/10/02 07:25:40;;;;;;;2.30;0.60;;;13.50;90.40;;;;;;4877445;29;20037;-78
2022/10/02 07:28:26;;;;;;;3.40;0.50;;;13.50;90.40;;;;;;4877615;29;20065;-77
2022/10/02 07:31:14;;;;;;;1.50;0.50;;;13.60;90.40;;;;;;4877890;29;20043;-78
2022/10/02 07:33:55;;;;;;;0.55;0.30;;;13.60;90.40;;;;;;4877366;29;20069;-79
2022/10/02 07:36:50;;;;;;;2.25;0.60;;;13.70;90.30;;;;;;4861290;29;20500;-80
2022/10/02 07:39:44;;;;;;;0.50;0.40;;;13.80;90.30;;;;;;4879965;29;20385;-80
2022/10/02 07:42:41;;;;;;;1.52;0.32;;;13.90;90.20;;;;;;4863698;29;20056;-79
2022/10/02 07:45:34;;;;;;;0.52;0.52;;;13.90;90.20;;;;;;4880436;29;20029;-80
2022/10/02 07:48:20;;;;;;;0.43;0.25;;;14.10;90.20;;;;;;4880924;29;20037;-80
2022/10/02 07:54:34;;;;;;;0.43;0.40;;;14.20;90.10;;;;;;4880025;29;20041;-79
2022/10/02 07:57:12;;;;;;;0.80;0.35;;;14.30;90.10;;;;;;4866329;29;20097;-80
2022/10/02 07:59:42;;;;;;;0.77;0.55;;;14.30;90.10;;;;;;4863850;29;20041;-80
2022/10/02 08:02:21;;;;;;;0.60;0.30;;;14.30;90.10;;;;;;4878891;29;20057;-80
2022/10/02 08:04:47;;;;;;;0.85;0.30;;;14.40;90.40;;;;;;4872847;29;20040;-81
2022/10/02 08:07:13;;;;;;;0.82;0.35;;;14.40;90.10;;;;;;4893431;29;20066;-81
2022/10/02 08:09:46;;;;;;;1.95;0.45;;;14.40;90.40;;;;;;4896446;29;20029;-81
2022/10/02 08:12:25;;;;;;;1.52;0.40;;;14.50;90.20;;;;;;4896896;29;20064;-80
2022/10/02 08:14:54;;;;;;;1.20;0.40;;;14.60;90.20;;;;;;4879351;29;20117;-79
2022/10/02 08:17:31;;;;;;;0.50;0.45;;;14.60;90.10;;;;;;4898562;29;20072;-80
2022/10/02 08:20:03;;;;;;;1.30;0.65;;;14.60;90.20;;;;;;4895748;29;20049;-80
2022/10/02 08:22:38;;;;;;;0.85;0.40;;;14.70;90.20;;;;;;4896552;29;20045;-80
2022/10/02 08:25:19;;;;;;;0.40;0.40;;;14.70;90.20;;;;;;4895597;29;20021;-79
2022/10/02 08:28:02;;;;;;;1.20;0.30;;;14.80;90.20;;;;;;4863793;29;20126;-80
2022/10/02 08:30:28;;;;;;;0.43;0.30;;;14.80;90.10;;;;;;4900540;29;20101;-80
2022/10/02 08:32:54;;;;;;;1.70;0.60;;;14.90;90.10;;;;;;4898016;29;20044;-80
2022/10/02 08:35:20;;;;;;;1.50;0.57;;;14.90;90.00;;;;;;4897988;29;20105;-79
2022/10/02 08:38:11;;;;;;;0.40;0.30;;;15.10;90.10;;;;;;4891119;29;20042;-80
2022/10/02 08:41:08;;;;;;;1.67;0.50;;;15.00;90.00;;;;;;4877587;29;20025;-78
2022/10/02 08:44:08;;;;;;;0.57;0.43;;;15.10;90.00;;;;;;4896506;29;20053;-79
2022/10/02 08:46:58;;;;;;;1.02;0.40;;;15.10;90.30;;;;;;4889220;29;20029;-79
2022/10/02 08:50:04;;;;;;;1.48;0.40;;;15.10;90.00;;;;;;4892698;29;20520;-79
2022/10/02 08:53:07;;;;;;;2.10;0.50;;;15.20;90.00;;;;;;4870279;29;20033;-78
2022/10/02 08:56:02;;;;;;;0.38;0.30;;;15.30;90.00;;;;;;4893615;29;20041;-80
2022/10/02 08:58:54;;;;;;;0.90;0.30;;;15.30;90.00;;;;;;4888413;29;20033;-79
2022/10/02 09:01:49;;;;;;;2.33;0.52;;;15.30;90.00;;;;;;4867063;29;20159;-79
2022/10/02 09:04:49;;;;;;;1.83;0.60;;;15.30;90.00;;;;;;4889514;29;20061;-77
2022/10/02 09:07:49;;;;;;;0.85;0.30;;;15.30;89.80;;;;;;4873618;29;20032;-78
2022/10/02 09:10:57;;;;;;;1.83;0.50;;;15.40;89.80;;;;;;4888235;29;20029;-78
2022/10/02 09:13:49;;;;;;;0.90;0.30;;;15.50;89.80;;;;;;4891018;29;20033;-78
2022/10/02 09:16:43;;;;;;;1.35;0.40;;;15.60;89.60;;;;;;4890645;29;20039;-79
2022/10/02 09:19:40;;;;;;;0.85;0.40;;;15.70;89.60;;;;;;4891923;29;20084;-79
2022/10/02 09:22:29;;;;;;;1.13;0.50;;;15.60;89.50;;;;;;4890102;29;20053;-79
2022/10/02 09:25:17;;;;;;;0.50;0.22;;;15.60;89.40;;;;;;4888939;29;20037;-78
2022/10/02 09:28:10;;;;;;;1.33;0.73;;;15.70;89.40;;;;;;4885688;29;20049;-79
2022/10/02 09:31:10;;;;;;;1.13;0.40;;;15.80;89.40;;;;;;4893859;29;20109;-79
2022/10/02 09:34:10;;;;;;;3.10;0.65;;;15.80;89.30;;;;;;4894940;29;20044;-78
2022/10/02 09:37:03;;;;;;;0.95;0.50;;;15.80;89.20;;;;;;4878143;29;20045;-79
2022/10/02 09:39:50;;;;;;;0.80;0.40;;;15.90;89.10;;;;;;4890768;29;20068;-79
2022/10/02 09:42:55;;;;;;;0.60;0.30;;;16.00;89.10;;;;;;4900611;29;20035;-79
2022/10/02 09:45:52;;;;;;;1.92;0.50;;;15.90;89.00;;;;;;4884889;29;20050;-79
2022/10/02 09:48:51;;;;;;;1.25;0.52;;;16.00;89.50;;;;;;4897664;29;20107;-78
2022/10/02 09:51:45;;;;;;;0.93;0.57;;;16.00;88.80;;;;;;4898936;29;20058;-78
2022/10/02 09:54:39;;;;;;;0.60;0.30;;;16.10;88.70;;;;;;4894373;29;20041;-79
2022/10/02 09:57:39;;;;;;;1.42;0.43;;;16.10;88.60;;;;;;4879652;29;20068;-79
2022/10/02 10:00:33;;;;;;;3.03;0.55;;;16.20;88.50;;;;;;4879858;29;20136;-79
2022/10/02 10:03:35;;;;;;;0.75;0.40;;;16.20;88.40;;;;;;4893989;29;20068;-80
2022/10/02 10:06:25;;;;;;;1.17;0.40;;;16.20;88.40;;;;;;4891209;29;20056;-78
2022/10/02 10:09:16;;;;;;;2.37;0.50;;;16.30;88.30;;;;;;4891520;29;20032;-78
2022/10/02 10:12:12;;;;;;;1.90;0.52;;;16.40;88.20;;;;;;4873164;29;20396;-79
2022/10/02 10:15:07;;;;;;;2.47;0.70;;;16.40;87.90;;;;;;4887985;29;20049;-78
2022/10/02 10:17:56;;;;;;;1.80;0.60;;;16.50;87.80;;;;;;4874179;29;20045;-78
2022/10/02 10:20:53;;;;;;;0.47;0.40;;;16.60;87.50;;;;;;4891512;29;20701;-78
2022/10/02 10:23:56;;;;;;;2.13;0.70;;;16.60;87.30;;;;;;4876093;29;20060;-78
2022/10/02 10:26:52;;;;;;;1.73;0.57;;;16.60;87.20;;;;;;4891029;29;20025;-78
2022/10/02 10:29:55;;;;;;;1.38;0.55;;;16.60;87.30;;;;;;4873289;29;20099;-78
2022/10/02 10:32:51;;;;;;;1.80;0.70;;;16.60;87.40;;;;;;4887873;29;20076;-78
2022/10/02 10:35:35;;;;;;;2.17;0.90;;;16.60;87.30;;;;;;4872794;29;20041;-78
2022/10/02 10:38:31;;;;;;;1.85;0.60;;;16.60;87.20;;;;;;4891512;29;20045;-78
2022/10/02 10:41:37;;;;;;;1.38;0.50;;;16.50;87.10;;;;;;4874459;29;20044;-78
2022/10/02 10:44:25;;;;;;;1.50;0.60;;;16.60;87.10;;;;;;4886915;29;20055;-79
2022/10/02 10:47:23;;;;;;;2.50;0.75;;;16.60;87.00;;;;;;4890836;29;20041;-79
2022/10/02 10:50:05;;;;;;;2.10;0.30;;;16.60;86.80;;;;;;4871895;29;20060;-79
2022/10/02 10:52:56;;;;;;;1.80;0.60;;;16.50;86.70;;;;;;4873061;29;20057;-80
2022/10/02 10:56:02;;;;;;;3.10;0.60;;;16.50;86.70;;;;;;4895376;29;20033;-79
2022/10/02 10:58:59;;;;;;;1.67;0.45;;;16.60;86.80;;;;;;4896048;29;20040;-79
2022/10/02 11:01:44;;;;;;;1.73;0.43;;;16.50;86.60;;;;;;4893155;29;20117;-79
2022/10/02 11:04:47;;;;;;;1.20;0.52;;;16.50;86.50;;;;;;4891493;29;20052;-79
2022/10/02 11:07:40;;;;;;;0.40;0.30;;;16.60;86.40;;;;;;4852712;29;20076;-77
2022/10/02 11:10:19;;;;;;;1.05;0.55;;;16.50;86.30;;;;;;4875063;29;20021;-77
2022/10/02 11:13:17;;;;;;;1.00;0.50;;;16.50;86.20;;;;;;4859023;29;20033;-78
2022/10/02 11:16:07;;;;;;;1.35;0.47;;;16.50;86.10;;;;;;4874910;29;20053;-78
2022/10/02 11:18:59;;;;;;;2.65;0.50;;;16.50;86.00;;;;;;4892652;29;20094;-78
2022/10/02 11:21:46;;;;;;;0.65;0.35;;;16.50;86.00;;;;;;4891206;29;20049;-78
2022/10/02 11:24:52;;;;;;;2.38;0.63;;;16.70;86.00;;;;;;4892336;29;20037;-78
2022/10/02 11:27:48;;;;;;;0.55;0.30;;;16.60;85.80;;;;;;4875567;29;20048;-78
2022/10/02 11:30:23;;;;;;;1.52;0.50;;;16.70;85.70;;;;;;4888550;29;20017;-77
2022/10/02 11:33:18;;;;;;;0.93;0.43;;;16.80;85.60;;;;;;4885842;29;20488;-79
2022/10/02 11:36:20;;;;;;;0.63;0.40;;;16.80;85.30;;;;;;4888034;29;20124;-79
2022/10/02 11:39:05;;;;;;;1.88;0.70;;;16.90;85.10;;;;;;4844364;29;20065;-78
2022/10/02 11:41:59;;;;;;;0.45;0.43;;;16.90;85.00;;;;;;4888001;29;20068;-78
2022/10/02 11:44:49;;;;;;;1.92;0.50;;;16.80;84.80;;;;;;4870630;29;20037;-78
2022/10/02 11:47:33;;;;;;;0.63;0.30;;;16.80;84.70;;;;;;4869365;29;20062;-78
2022/10/02 11:50:21;;;;;;;1.95;0.55;;;16.90;84.80;;;;;;4888063;29;20033;-78
2022/10/02 11:53:10;;;;;;;0.85;0.47;;;16.80;84.70;;;;;;4869476;29;20064;-78
2022/10/02 11:55:59;;;;;;;1.30;0.50;;;16.90;84.70;;;;;;4855096;29;20125;-77
2022/10/02 11:58:57;;;;;;;1.35;0.30;;;16.90;84.60;;;;;;4885103;29;20033;-79
2022/10/02 12:01:44;;;;;;;0.55;0.40;;;16.90;84.50;;;;;;4885839;29;20041;-79
2022/10/02 12:04:28;;;;;;;3.83;0.52;;;17.00;84.40;;;;;;4885027;29;20064;-78
2022/10/02 12:07:18;;;;;;;0.85;0.30;;;17.10;84.30;;;;;;4884821;29;20033;-78
2022/10/02 12:10:21;;;;;;;0.57;0.40;;;17.30;84.20;;;;;;4853383;29;20042;-79
2022/10/02 12:13:04;;;;;;;0.80;0.40;;;17.20;83.90;;;;;;4868134;29;20037;-79
2022/10/02 12:16:02;;;;;;;0.50;0.28;;;17.30;84.10;;;;;;4869734;29;20043;-78
2022/10/02 12:18:51;;;;;;;0.70;0.40;;;17.10;83.80;;;;;;4872038;29;20392;-79
2022/10/02 12:28:25;;;;;;;2.35;0.50;;;17.10;83.80;;;;;;4886199;29;20055;-79
2022/10/02 12:31:13;;;;;;;1.23;0.32;;;17.10;83.90;;;;;;4884872;29;20041;-78
2022/10/02 12:33:53;;;;;;;1.10;0.45;;;17.00;83.90;;;;;;4886023;29;20492;-79
2022/10/02 12:36:38;;;;;;;0.20;0.20;;;17.00;84.00;;;;;;4886390;29;20048;-78
2022/10/02 12:39:32;;;;;;;0.80;0.35;;;17.00;84.10;;;;;;4880813;29;20286;-79
2022/10/02 12:42:10;;;;;;;0.75;0.47;;;17.00;84.10;;;;;;4885136;29;20045;-79
2022/10/02 12:45:13;;;;;;;1.02;0.60;;;17.00;83.80;;;;;;4889257;29;20049;-78
2022/10/02 12:48:06;;;;;;;1.20;0.40;;;17.30;83.50;;;;;;4886105;29;20066;-78
2022/10/02 12:51:04;;;;;;;1.15;0.43;;;17.20;83.00;;;;;;4888659;29;20057;-78
2022/10/02 12:54:06;;;;;;;3.20;0.60;;;17.30;82.60;;;;;;4887713;29;20125;-78
2022/10/02 12:57:00;;;;;;;2.05;0.77;;;17.30;82.30;;;;;;4891755;29;20053;-79
2022/10/02 12:59:57;;;;;;;1.60;0.60;;;17.30;81.90;;;;;;4873838;29;20037;-78
2022/10/02 13:02:49;;;;;;;1.63;0.60;;;17.30;81.80;;;;;;4872482;29;20069;-78
2022/10/02 13:05:39;;;;;;;1.65;0.60;;;17.30;81.50;;;;;;4872722;29;20489;-78
2022/10/02 13:08:23;;;;;;;2.60;0.55;;;17.30;81.30;;;;;;4887071;29;20411;-78
2022/10/02 13:11:06;;;;;;;2.58;0.68;;;17.20;81.40;;;;;;4873477;29;20053;-78
2022/10/02 13:13:55;;;;;;;1.80;0.73;;;17.10;81.40;;;;;;4889122;29;20045;-78
2022/10/02 13:16:50;;;;;;;1.17;0.50;;;17.10;81.30;;;;;;4868060;29;20068;-77
2022/10/02 13:19:29;;;;;;;0.32;0.30;;;17.00;81.30;;;;;;4885516;29;20041;-79
2022/10/02 13:22:15;;;;;;;1.75;0.60;;;17.00;81.40;;;;;;4886734;29;20070;-79
2022/10/02 13:25:16;;;;;;;2.88;0.80;;;17.00;81.40;;;;;;4884013;29;20041;-79
2022/10/02 13:28:19;;;;;;;1.40;0.40;;;17.00;81.40;;;;;;4871570;29;20041;-79
2022/10/02 13:31:01;;;;;;;2.63;0.50;;;17.10;81.10;;;;;;4890316;29;20345;-77
2022/10/02 13:33:49;;;;;;;1.13;0.40;;;17.10;80.80;;;;;;4874073;29;20049;-78
2022/10/02 13:36:37;;;;;;;1.50;0.57;;;17.10;80.60;;;;;;4895065;29;20044;-78
2022/10/02 13:39:39;;;;;;;1.40;0.40;;;17.20;80.30;;;;;;4877120;29;20024;-78
2022/10/02 13:42:36;;;;;;;0.77;0.50;;;17.30;80.20;;;;;;4895607;29;20065;-78
2022/10/02 13:45:25;;;;;;;1.48;0.47;;;17.30;80.00;;;;;;4893739;29;20045;-78
2022/10/02 13:48:29;;;;;;;1.02;0.47;;;17.40;79.90;;;;;;4872696;29;20074;-79
2022/10/02 13:51:19;;;;;;;1.50;0.40;;;17.50;79.60;;;;;;4890939;29;20037;-79
2022/10/02 13:54:09;;;;;;;2.58;0.60;;;17.50;79.10;;;;;;4892670;29;20059;-79
2022/10/02 13:56:49;;;;;;;1.50;0.52;;;17.50;79.10;;;;;;4874585;29;20048;-78
2022/10/02 13:59:27;;;;;;;4.32;0.60;;;17.40;78.90;;;;;;4874521;29;20045;-79
2022/10/02 14:02:16;;;;;;;3.50;0.60;;;17.30;78.80;;;;;;4892828;29;20062;-79
2022/10/02 14:04:54;;;;;;;1.48;0.50;;;17.30;78.80;;;;;;4890145;29;20041;-79
2022/10/02 14:07:50;;;;;;;2.03;0.63;;;17.20;78.80;;;;;;4893470;29;20108;-79
2022/10/02 14:10:39;;;;;;;1.40;0.57;;;17.20;79.00;;;;;;4872489;29;20036;-78
2022/10/02 14:13:41;;;;;;;0.32;0.30;;;17.20;79.10;;;;;;4853978;29;20044;-78
2022/10/02 14:16:36;;;;;;;0.93;0.50;;;17.20;79.20;;;;;;4866479;29;20044;-78
2022/10/02 14:19:34;;;;;;;0.30;0.30;;;17.30;79.30;;;;;;4867962;29;20041;-79
2022/10/02 14:22:24;;;;;;;1.55;0.50;;;17.30;79.30;;;;;;4875007;29;20081;-79
2022/10/02 14:25:19;;;;;;;0.95;0.50;;;17.30;79.10;;;;;;4890266;29;20101;-79
2022/10/02 14:28:00;;;;;;;1.67;0.50;;;17.30;79.00;;;;;;4887155;29;20101;-79
2022/10/02 14:31:02;;;;;;;1.90;0.70;;;17.30;78.90;;;;;;4888877;29;20040;-79